Brownsville, TX

7:43 PM CST on December 22, 2014 (GMT -0600)
Brownsville-South Padre I International | Change Station
CLOSE
Current Station
Airport
Location: Brownsville,
Elevation: 20 ft
Nearby Weather Stations
Active Advisory: Special Statement

Elev 20 ft 25.91 °N, 97.42 °W | Updated 50 minutes ago

Partly Cloudy
Partly Cloudy
67 °F
Feels Like 67 °F
N
8
Wind Variable Wind from South

Today
High -- | Low -- °F
--% Chance of Precip.
Yesterday
High -- | Low -- °F
Precip. -- in
7:13 AM 5:44 PM
New Moon, 1% visible
Pressure 29.65 in
Visibility 9.0 miles
Clouds Clear
Dew Point 64 °F
Humidity 90%
Rainfall 0.00 in
Snow Depth Not available.
UV 0 out of 12
Pollen 9.80 out of 12
Air Quality Not available.
Flu Activity Not available.
METAR KBRO 230053Z 17007KT 9SM CLR 19/18 A2965 RMK AO2 SLP039 T01940178

More Conditions Fewer Conditions

Pressure 29.65 in
Visibility 9.0 miles
Clouds Clear
Dew Point 64 °F
Humidity 90%
Rainfall 0.00 in
Snow Depth Not available.
UV 0 out of 12
Pollen 9.80 out of 12
Air Quality Not available.
Flu Activity Not available.
METAR KBRO 230053Z 17007KT 9SM CLR 19/18 A2965 RMK AO2 SLP039 T01940178

More Conditions Fewer Conditions

10-Day Weather Forecast

Almanac

Astronomy

Dec. 22, 2014 Rise Set
Actual Time
Civil Twilight
Nautical Twilight
Astronomical Twilight
Moon
Length of Visible Light
Length of Day
Tomorrow will be .
, % of the Moon is Illuminated

Today's Extremes

State Highs State Lows

Community

WunderPhotos

Upload Photos

1,779,753 photos uploaded!

WunderBlogs® & News

Nearby

Air Quality

  Air Quality AQ Index Pollutant
Not available.

Snow Depth

Station Depth Elevation

Earthquake Activity

City Distance Mag. Time & Date
Minimum magnitude displayed is 2.5.

Coastal Water Temperatures

Place Temperature

Nearby Weather Stations